createdAt,value
2018-11-03T00:01:20.977Z,5.97
2018-11-03T00:03:49.463Z,6.20
2018-11-03T00:06:17.965Z,5.97
2018-11-03T00:08:46.463Z,5.97
2018-11-03T00:11:16.091Z,5.33
2018-11-03T00:13:44.569Z,6.20
2018-11-03T00:16:13.158Z,5.83
2018-11-03T00:18:41.657Z,6.10
2018-11-03T00:21:10.167Z,6.53
2018-11-03T00:23:38.650Z,7.20
2018-11-03T00:26:08.426Z,7.03
2018-11-03T00:28:36.969Z,7.00
2018-11-03T00:31:05.609Z,5.93
2018-11-03T00:33:34.077Z,6.30
2018-11-03T00:36:02.569Z,6.50
2018-11-03T00:38:31.065Z,7.20
2018-11-03T00:40:59.570Z,7.60
2018-11-03T00:43:28.097Z,6.93
2018-11-03T00:45:56.570Z,6.67
2018-11-03T00:48:25.089Z,7.10
2018-11-03T00:50:54.621Z,7.13
2018-11-03T00:53:24.367Z,6.47
2018-11-03T00:55:52.903Z,6.27
2018-11-03T00:58:21.368Z,5.87
2018-11-03T01:00:49.870Z,5.83
2018-11-03T01:03:20.137Z,5.43
2018-11-03T01:05:48.640Z,5.40
2018-11-03T01:08:17.131Z,5.40
2018-11-03T01:10:45.618Z,5.37
2018-11-03T01:13:14.112Z,6.03
2018-11-03T01:15:42.600Z,6.10
2018-11-03T01:18:11.115Z,5.43
2018-11-03T01:20:39.610Z,5.40
2018-11-03T01:23:08.089Z,5.90
2018-11-03T01:25:36.631Z,6.00
2018-11-03T01:28:05.198Z,6.10
2018-11-03T01:30:33.907Z,5.23
2018-11-03T01:33:02.418Z,5.07
2018-11-03T01:35:30.900Z,5.90
2018-11-03T01:37:59.368Z,4.97
2018-11-03T01:40:28.356Z,5.27
2018-11-03T01:43:03.942Z,5.87
2018-11-03T01:45:32.436Z,5.90
2018-11-03T01:48:01.332Z,6.43
2018-11-03T01:50:29.830Z,6.13
2018-11-03T01:52:58.334Z,6.80
2018-11-03T01:55:26.846Z,6.37
2018-11-03T01:57:55.370Z,6.07
2018-11-03T02:00:23.866Z,6.20
2018-11-03T02:02:52.344Z,6.13
2018-11-03T02:05:20.858Z,6.83
2018-11-03T02:07:49.368Z,6.20
2018-11-03T02:10:17.875Z,6.47
2018-11-03T02:12:46.358Z,6.53
2018-11-03T02:15:14.896Z,6.60
2018-11-03T02:17:43.368Z,6.50
2018-11-03T02:20:12.250Z,7.27
2018-11-03T02:22:41.070Z,6.80
2018-11-03T02:25:10.856Z,6.70
2018-11-03T02:27:39.376Z,7.37
2018-11-03T02:30:08.622Z,7.27
2018-11-03T02:32:37.088Z,7.70
2018-11-03T02:35:06.237Z,7.90
2018-11-03T02:37:34.714Z,7.23
2018-11-03T02:40:03.271Z,6.93
2018-11-03T02:42:31.762Z,6.90
2018-11-03T02:45:00.294Z,7.23
2018-11-03T02:47:28.810Z,6.87
2018-11-03T02:49:57.312Z,7.10
2018-11-03T02:52:25.834Z,6.83
2018-11-03T02:54:54.311Z,7.43
2018-11-03T02:57:22.806Z,7.10
2018-11-03T02:59:51.319Z,6.73
2018-11-03T03:02:19.795Z,7.20
2018-11-03T03:04:48.307Z,7.50
2018-11-03T03:07:16.811Z,7.27
2018-11-03T03:09:45.933Z,8.20
2018-11-03T03:12:14.473Z,8.40
2018-11-03T03:14:42.994Z,8.33
2018-11-03T03:17:12.477Z,8.50
2018-11-03T03:19:42.305Z,7.83
2018-11-03T03:22:10.834Z,8.23
2018-11-03T03:24:40.305Z,7.47
2018-11-03T03:27:08.777Z,7.20
2018-11-03T03:29:37.327Z,8.37
2018-11-03T03:32:06.206Z,8.87
2018-11-03T03:34:35.034Z,9.10
2018-11-03T03:37:03.563Z,9.00
2018-11-03T03:39:33.019Z,8.57
2018-11-03T03:42:02.571Z,9.67
2018-11-03T03:44:31.101Z,9.37
2018-11-03T03:46:59.682Z,9.40
2018-11-03T03:49:28.185Z,9.53
2018-11-03T03:51:56.699Z,9.07
2018-11-03T03:54:25.175Z,9.80
2018-11-03T03:56:53.649Z,10.27
2018-11-03T03:59:22.143Z,9.93
2018-11-03T04:01:51.473Z,9.90
2018-11-03T04:04:21.224Z,9.77
2018-11-03T04:06:50.282Z,9.43
2018-11-03T04:09:18.775Z,9.63
2018-11-03T04:11:47.264Z,8.27
2018-11-03T04:14:15.818Z,8.53
2018-11-03T04:16:46.164Z,9.23
2018-11-03T04:19:14.643Z,8.87
2018-11-03T04:21:44.878Z,9.67
2018-11-03T04:24:13.373Z,8.97
2018-11-03T04:26:43.116Z,8.77
2018-11-03T04:29:11.627Z,7.37
2018-11-03T04:31:40.879Z,9.23
2018-11-03T04:34:09.362Z,8.27
2018-11-03T04:36:37.846Z,8.50
2018-11-03T04:39:07.992Z,7.53
2018-11-03T04:41:36.492Z,8.03
2018-11-03T04:44:05.116Z,8.23
2018-11-03T04:46:33.641Z,8.50
2018-11-03T04:49:03.240Z,7.43
2018-11-03T04:51:33.140Z,7.87
2018-11-03T04:54:01.631Z,8.00
2018-11-03T04:56:30.178Z,7.37
2018-11-03T04:58:58.884Z,7.40
2018-11-03T05:01:27.412Z,8.47
2018-11-03T05:03:55.888Z,8.03
2018-11-03T05:06:24.410Z,8.30
2018-11-03T05:08:52.907Z,8.20
2018-11-03T05:11:21.435Z,8.50
2018-11-03T05:13:49.916Z,9.50
2018-11-03T05:16:18.378Z,9.00
2018-11-03T05:18:46.862Z,10.27
2018-11-03T05:21:15.397Z,10.30
2018-11-03T05:23:43.886Z,10.83
2018-11-03T05:26:14.326Z,11.17
2018-11-03T05:28:42.844Z,11.23
2018-11-03T05:31:11.426Z,10.97
2018-11-03T05:33:40.342Z,11.80
2018-11-03T05:36:08.867Z,11.87
2018-11-03T05:38:37.386Z,11.60
2018-11-03T05:41:06.584Z,11.77
2018-11-03T05:43:35.118Z,12.33
2018-11-03T05:46:03.669Z,13.20
2018-11-03T05:48:32.214Z,13.10
2018-11-03T05:51:00.694Z,12.83
2018-11-03T05:53:29.189Z,13.37
2018-11-03T05:55:57.764Z,14.17
2018-11-03T05:58:26.346Z,14.07
2018-11-03T06:00:54.839Z,14.20
2018-11-03T06:03:23.320Z,14.17
2018-11-03T06:05:51.823Z,14.00
2018-11-03T06:08:20.319Z,15.00
2018-11-03T06:10:49.412Z,15.50
2018-11-03T06:13:17.888Z,15.83
2018-11-03T06:15:46.372Z,16.47
2018-11-03T06:18:15.734Z,15.90
2018-11-03T06:20:44.254Z,15.77
2018-11-03T06:23:12.891Z,15.10
2018-11-03T06:25:41.833Z,14.70
2018-11-03T06:28:10.489Z,16.77
2018-11-03T06:30:38.910Z,16.30
2018-11-03T06:33:08.048Z,15.53
2018-11-03T06:35:36.574Z,16.23
2018-11-03T06:38:05.316Z,16.87
2018-11-03T06:40:33.822Z,17.53
2018-11-03T06:43:02.550Z,16.33
2018-11-03T06:45:31.020Z,16.80
2018-11-03T06:48:00.255Z,17.17
2018-11-03T06:50:28.737Z,16.73
2018-11-03T06:52:57.221Z,16.03
2018-11-03T06:55:25.734Z,16.50
2018-11-03T06:57:54.254Z,16.33
2018-11-03T07:00:23.535Z,16.27
2018-11-03T07:02:52.058Z,16.67
2018-11-03T07:05:20.662Z,16.27
2018-11-03T07:07:49.081Z,16.37
2018-11-03T07:10:18.489Z,16.80
2018-11-03T07:12:47.357Z,16.57
2018-11-03T07:15:15.614Z,16.53
2018-11-03T07:17:44.117Z,16.33
2018-11-03T07:20:13.256Z,15.53
2018-11-03T07:22:42.130Z,17.30
2018-11-03T07:25:11.304Z,15.70
2018-11-03T07:27:39.940Z,16.63
2018-11-03T07:30:10.763Z,15.97
2018-11-03T07:32:39.340Z,15.57
2018-11-03T07:35:08.378Z,16.33
2018-11-03T07:37:36.896Z,16.33
2018-11-03T07:40:06.806Z,15.60
2018-11-03T07:42:35.335Z,15.27
2018-11-03T07:45:03.906Z,16.93
2018-11-03T07:47:32.416Z,15.77
2018-11-03T07:50:00.966Z,15.80
2018-11-03T07:52:29.448Z,15.57
2018-11-03T07:54:57.962Z,15.67
2018-11-03T07:57:26.478Z,16.43
2018-11-03T07:59:57.533Z,16.47
2018-11-03T08:02:26.780Z,16.73
2018-11-03T08:04:55.555Z,16.27
2018-11-03T08:07:24.058Z,15.93
2018-11-03T08:09:52.622Z,17.20
2018-11-03T08:12:21.114Z,16.60
2018-11-03T08:14:49.616Z,16.40
2018-11-03T08:17:19.536Z,17.03
2018-11-03T08:19:48.051Z,17.57
2018-11-03T08:22:16.568Z,17.37
2018-11-03T08:24:45.090Z,16.83
2018-11-03T08:27:13.576Z,17.23
2018-11-03T08:29:42.067Z,16.97
2018-11-03T08:32:10.672Z,18.03
2018-11-03T08:34:39.200Z,16.87
2018-11-03T08:37:07.774Z,17.67
2018-11-03T08:39:36.387Z,17.00
2018-11-03T08:42:05.231Z,17.63
2018-11-03T08:44:33.738Z,16.90
2018-11-03T08:47:02.292Z,16.90
2018-11-03T08:49:30.889Z,15.73
2018-11-03T08:51:59.506Z,16.87
2018-11-03T08:54:28.029Z,17.13
2018-11-03T08:56:56.535Z,16.87
2018-11-03T08:59:25.101Z,16.77
2018-11-03T09:01:53.741Z,17.33
2018-11-03T09:04:22.227Z,17.07
2018-11-03T09:06:50.794Z,16.23
2018-11-03T09:09:19.260Z,16.87
2018-11-03T09:11:48.092Z,16.67
2018-11-03T09:14:16.637Z,16.37
2018-11-03T09:16:45.186Z,15.53
2018-11-03T09:19:13.882Z,16.40
2018-11-03T09:21:42.538Z,16.40
2018-11-03T09:24:11.714Z,15.47
2018-11-03T09:26:40.396Z,15.43
2018-11-03T09:29:09.768Z,15.33
2018-11-03T09:31:38.412Z,14.43
2018-11-03T09:34:06.976Z,14.30
2018-11-03T09:36:36.872Z,13.80
2018-11-03T09:39:08.915Z,12.87
2018-11-03T09:41:38.577Z,12.67
2018-11-03T09:44:07.496Z,12.27
2018-11-03T09:46:36.055Z,12.90
2018-11-03T09:49:04.890Z,12.57
2018-11-03T09:51:33.873Z,13.53
2018-11-03T09:54:02.411Z,11.87
2018-11-03T09:56:30.971Z,12.23
2018-11-03T09:58:59.421Z,12.60
2018-11-03T10:01:27.939Z,12.93
2018-11-03T10:03:56.470Z,12.10
2018-11-03T10:06:25.002Z,13.57
2018-11-03T10:08:53.511Z,12.77
2018-11-03T10:11:22.032Z,13.00
2018-11-03T10:13:50.529Z,11.97
2018-11-03T10:16:19.245Z,12.90
2018-11-03T10:18:47.765Z,11.30
2018-11-03T10:21:16.417Z,11.13
2018-11-03T10:23:44.929Z,9.70
2018-11-03T10:26:13.433Z,11.17
2018-11-03T10:28:41.977Z,10.80
2018-11-03T10:31:10.523Z,10.20
2018-11-03T10:33:39.505Z,10.90
2018-11-03T10:36:08.004Z,10.70
2018-11-03T10:38:36.616Z,9.60
2018-11-03T10:41:05.137Z,8.77
2018-11-03T10:43:33.655Z,7.90
2018-11-03T10:46:02.224Z,7.83
2018-11-03T10:48:30.679Z,6.60
2018-11-03T10:50:59.150Z,6.93
2018-11-03T10:53:27.664Z,6.97
2018-11-03T10:55:56.155Z,6.83
2018-11-03T10:58:24.637Z,7.07
2018-11-03T11:00:58.424Z,6.97
2018-11-03T11:03:32.399Z,6.30
2018-11-03T11:06:06.400Z,6.37
2018-11-03T11:08:40.326Z,6.47
2018-11-03T11:11:15.296Z,6.33
2018-11-03T11:13:44.427Z,6.27
2018-11-03T11:16:13.343Z,7.10
2018-11-03T11:18:42.318Z,6.53
2018-11-03T11:21:10.830Z,5.77
2018-11-03T11:23:39.394Z,5.77
2018-11-03T11:26:08.491Z,6.07
2018-11-03T11:28:37.023Z,6.37
2018-11-03T11:31:05.535Z,7.20
2018-11-03T11:33:34.053Z,7.60
2018-11-03T11:36:02.612Z,6.37
2018-11-03T11:38:32.613Z,7.30
2018-11-03T11:41:01.095Z,7.10
2018-11-03T11:43:29.632Z,6.27
2018-11-03T11:45:58.122Z,5.67
2018-11-03T11:48:27.864Z,4.70
2018-11-03T11:50:56.382Z,5.53
2018-11-03T11:53:24.877Z,6.30
2018-11-03T11:55:53.401Z,4.77
2018-11-03T11:58:21.922Z,5.40
2018-11-03T12:00:50.502Z,5.83
2018-11-03T12:03:20.738Z,5.63
2018-11-03T12:05:49.538Z,4.90
2018-11-03T12:08:18.059Z,5.17
2018-11-03T12:10:49.063Z,5.60
2018-11-03T12:13:17.538Z,5.47
2018-11-03T12:15:47.348Z,5.73
2018-11-03T12:18:16.316Z,6.30
2018-11-03T12:20:46.147Z,5.10
2018-11-03T12:23:14.952Z,5.63
2018-11-03T12:25:43.548Z,6.07
2018-11-03T12:28:12.044Z,5.00
2018-11-03T12:30:40.605Z,5.60
2018-11-03T12:33:09.186Z,6.23
2018-11-03T12:35:37.704Z,6.33
2018-11-03T12:38:06.357Z,5.27
2018-11-03T12:40:36.276Z,4.73
2018-11-03T12:43:05.960Z,4.90
2018-11-03T12:45:35.078Z,6.43
2018-11-03T12:48:03.904Z,5.90
2018-11-03T12:50:32.498Z,4.23
2018-11-03T12:53:00.901Z,5.07
2018-11-03T12:55:30.419Z,5.33
2018-11-03T12:57:58.906Z,5.93
2018-11-03T13:00:27.415Z,6.10
2018-11-03T13:02:55.935Z,6.43
2018-11-03T13:05:24.525Z,6.10
2018-11-03T13:07:53.063Z,6.57
2018-11-03T13:10:21.678Z,6.93
2018-11-03T13:12:50.268Z,7.10
2018-11-03T13:15:18.795Z,7.20
2018-11-03T13:17:47.291Z,6.30
2018-11-03T13:20:15.855Z,7.03
2018-11-03T13:22:45.744Z,8.07
2018-11-03T13:25:14.306Z,6.87
2018-11-03T13:27:43.268Z,7.53
2018-11-03T13:30:15.126Z,8.07
2018-11-03T13:32:43.623Z,8.37
2018-11-03T13:35:13.192Z,8.17
2018-11-03T13:37:41.780Z,7.80
2018-11-03T13:40:11.627Z,7.20
2018-11-03T13:42:40.172Z,7.90
2018-11-03T13:45:11.226Z,7.80
2018-11-03T13:47:40.253Z,7.10
2018-11-03T13:50:13.414Z,7.50
2018-11-03T13:52:43.635Z,7.80
2018-11-03T13:55:12.370Z,7.90
2018-11-03T13:57:42.130Z,7.27
2018-11-03T14:00:13.018Z,7.70
2018-11-03T14:02:42.533Z,7.47
2018-11-03T14:05:11.465Z,6.87
2018-11-03T14:07:39.952Z,7.47
2018-11-03T14:10:10.812Z,6.77
2018-11-03T14:12:39.375Z,7.23
2018-11-03T14:15:09.893Z,7.30
2018-11-03T14:17:38.401Z,6.93
2018-11-03T14:20:08.141Z,6.10
2018-11-03T14:22:36.679Z,5.80
2018-11-03T14:25:06.255Z,5.50
2018-11-03T14:27:34.832Z,4.90
2018-11-03T14:30:03.587Z,4.97
2018-11-03T14:32:32.578Z,4.60
2018-11-03T14:35:01.055Z,4.83
2018-11-03T14:37:29.836Z,4.60
2018-11-03T14:39:58.396Z,4.57
2018-11-03T14:42:28.358Z,4.40
2018-11-03T14:44:57.909Z,4.30
2018-11-03T14:47:27.366Z,3.73
2018-11-03T14:49:55.849Z,3.87
2018-11-03T14:52:24.820Z,4.13
2018-11-03T14:54:53.284Z,3.53
2018-11-03T14:57:23.310Z,3.87
2018-11-03T14:59:51.846Z,3.13
2018-11-03T15:02:20.323Z,3.37
2018-11-03T15:04:48.792Z,3.00
2018-11-03T15:07:18.256Z,3.80
2018-11-03T15:09:46.842Z,3.57
2018-11-03T15:12:15.417Z,3.27
2018-11-03T15:14:43.909Z,3.60
2018-11-03T15:17:12.466Z,3.37
2018-11-03T15:19:41.015Z,3.90
2018-11-03T15:22:10.581Z,3.90
2018-11-03T15:24:39.164Z,4.03
2018-11-03T15:27:07.678Z,4.07
2018-11-03T15:29:36.190Z,4.03
2018-11-03T15:32:04.809Z,4.10
2018-11-03T15:34:34.532Z,3.97
2018-11-03T15:37:03.049Z,3.53
2018-11-03T15:39:31.518Z,4.40
2018-11-03T15:41:59.995Z,4.20
2018-11-03T15:44:28.558Z,4.80
2018-11-03T15:46:58.018Z,4.73
2018-11-03T15:49:26.478Z,4.47
2018-11-03T15:51:56.662Z,4.93
2018-11-03T15:54:25.206Z,5.87
2018-11-03T15:56:54.368Z,7.50
2018-11-03T15:59:22.936Z,9.27
2018-11-03T16:01:51.415Z,9.93
2018-11-03T16:04:19.922Z,10.13
2018-11-03T16:06:48.441Z,9.57
2018-11-03T16:09:16.946Z,8.93
2018-11-03T16:11:45.473Z,9.07
2018-11-03T16:14:14.156Z,8.70
2018-11-03T16:16:42.623Z,8.93
2018-11-03T16:19:11.115Z,8.17
2018-11-03T16:21:39.649Z,7.07
2018-11-03T16:24:08.261Z,7.33
2018-11-03T16:26:36.741Z,6.77
2018-11-03T16:29:05.327Z,7.00
2018-11-03T16:31:34.119Z,7.40
2018-11-03T16:34:02.661Z,7.70
2018-11-03T16:36:31.288Z,7.87
2018-11-03T16:38:59.785Z,7.93
2018-11-03T16:41:28.306Z,8.13
2018-11-03T16:43:56.901Z,7.87
2018-11-03T16:46:25.464Z,8.27
2018-11-03T16:48:53.986Z,7.97
2018-11-03T16:51:22.485Z,8.37
2018-11-03T16:53:51.021Z,8.40
2018-11-03T16:56:19.490Z,8.60
2018-11-03T16:58:48.130Z,8.00
2018-11-03T17:01:16.485Z,9.07
2018-11-03T17:03:45.031Z,8.27
2018-11-03T17:06:13.505Z,8.20
2018-11-03T17:08:41.970Z,8.10
2018-11-03T17:11:10.525Z,8.33
2018-11-03T17:13:39.043Z,8.57
2018-11-03T17:16:07.579Z,8.13
2018-11-03T17:18:36.064Z,8.73
2018-11-03T17:21:04.549Z,8.03
2018-11-03T17:23:33.139Z,8.30
2018-11-03T17:26:01.655Z,8.33
2018-11-03T17:28:30.233Z,8.50
2018-11-03T17:30:58.725Z,8.53
2018-11-03T17:33:27.216Z,8.70
2018-11-03T17:35:55.724Z,8.47
2018-11-03T17:38:24.224Z,8.53
2018-11-03T17:40:52.710Z,8.80
2018-11-03T17:43:21.202Z,8.27
2018-11-03T17:45:49.672Z,7.87
2018-11-03T17:48:18.182Z,8.20
2018-11-03T17:50:46.679Z,8.40
2018-11-03T17:53:15.186Z,8.20
2018-11-03T17:55:43.670Z,8.37
2018-11-03T17:58:12.177Z,8.97
2018-11-03T18:00:40.775Z,8.80
2018-11-03T18:03:09.294Z,9.23
2018-11-03T18:05:37.836Z,10.37
2018-11-03T18:08:06.414Z,10.10
2018-11-03T18:10:34.905Z,10.30
2018-11-03T18:13:03.550Z,9.77
2018-11-03T18:15:32.016Z,9.50
2018-11-03T18:18:00.531Z,9.67
2018-11-03T18:20:29.111Z,9.60
2018-11-03T18:22:57.659Z,10.03
2018-11-03T18:25:26.156Z,9.33
2018-11-03T18:27:54.777Z,8.97
2018-11-03T18:30:23.320Z,9.47
2018-11-03T18:32:51.864Z,9.40
2018-11-03T18:35:20.526Z,9.10
2018-11-03T18:37:49.026Z,9.23
2018-11-03T18:40:17.573Z,9.00
2018-11-03T18:42:46.081Z,9.97
2018-11-03T18:45:15.558Z,9.60
2018-11-03T18:47:44.070Z,9.97
2018-11-03T18:50:14.094Z,10.03
2018-11-03T18:52:42.805Z,11.33
2018-11-03T18:55:12.158Z,10.30
2018-11-03T18:57:41.530Z,9.90
2018-11-03T19:00:10.826Z,9.43
2018-11-03T19:02:39.991Z,9.80
2018-11-03T19:05:08.919Z,10.20
2018-11-03T19:07:37.451Z,9.67
2018-11-03T19:10:07.290Z,10.20
2018-11-03T19:12:35.831Z,9.60
2018-11-03T19:15:04.481Z,10.60
2018-11-03T19:17:33.017Z,11.07
2018-11-03T19:20:01.539Z,10.80
2018-11-03T19:22:30.058Z,10.87
2018-11-03T19:24:58.579Z,10.17
2018-11-03T19:27:27.121Z,10.73
2018-11-03T19:29:55.748Z,10.60
2018-11-03T19:32:24.209Z,10.30
2018-11-03T19:34:52.776Z,10.80
2018-11-03T19:37:21.280Z,10.83
2018-11-03T19:39:49.829Z,11.33
2018-11-03T19:42:18.483Z,10.67
2018-11-03T19:44:47.010Z,10.93
2018-11-03T19:47:15.546Z,11.03
2018-11-03T19:49:44.139Z,11.50
2018-11-03T19:52:12.654Z,10.67
2018-11-03T19:54:41.299Z,10.53
2018-11-03T19:57:09.843Z,11.17
2018-11-03T19:59:38.344Z,10.63
2018-11-03T20:02:06.930Z,10.60
2018-11-03T20:04:35.501Z,10.70
2018-11-03T20:07:04.071Z,10.93
2018-11-03T20:09:32.599Z,11.13
2018-11-03T20:12:01.131Z,11.13
2018-11-03T20:14:29.657Z,11.37
2018-11-03T20:16:58.194Z,10.67
2018-11-03T20:19:26.745Z,11.77
2018-11-03T20:21:55.268Z,10.83
2018-11-03T20:24:23.829Z,11.20
2018-11-03T20:26:52.363Z,11.90
2018-11-03T20:29:20.934Z,12.40
2018-11-03T20:31:49.494Z,11.63
2018-11-03T20:34:18.016Z,12.20
2018-11-03T20:36:46.529Z,11.60
2018-11-03T20:39:15.037Z,11.17
2018-11-03T20:41:43.583Z,11.70
2018-11-03T20:44:12.146Z,11.87
2018-11-03T20:46:40.685Z,11.87
2018-11-03T20:49:09.208Z,12.83
2018-11-03T20:51:37.730Z,12.30
2018-11-03T20:54:06.398Z,12.80
2018-11-03T20:56:34.980Z,12.93
2018-11-03T20:59:03.562Z,13.27
2018-11-03T21:01:32.135Z,12.53
2018-11-03T21:04:00.660Z,13.47
2018-11-03T21:06:29.187Z,12.70
2018-11-03T21:08:57.764Z,14.07
2018-11-03T21:11:26.304Z,13.93
2018-11-03T21:13:54.827Z,13.20
2018-11-03T21:16:23.374Z,13.93
2018-11-03T21:18:52.037Z,14.00
2018-11-03T21:21:21.344Z,13.40
2018-11-03T21:23:49.920Z,13.53
2018-11-03T21:26:18.554Z,13.67
2018-11-03T21:28:47.053Z,14.00
2018-11-03T21:31:15.641Z,14.27
2018-11-03T21:33:44.216Z,14.53
2018-11-03T21:36:12.716Z,14.50
2018-11-03T21:38:54.546Z,14.23
2018-11-03T21:41:23.010Z,14.70
2018-11-03T21:43:51.707Z,14.67
2018-11-03T21:46:20.331Z,14.43
2018-11-03T21:48:48.844Z,15.53
2018-11-03T21:51:17.361Z,15.83
2018-11-03T21:53:45.866Z,14.77
2018-11-03T21:56:14.360Z,15.67
2018-11-03T21:58:42.855Z,15.27
2018-11-03T22:01:11.337Z,15.60
2018-11-03T22:03:39.859Z,15.50
2018-11-03T22:06:08.519Z,16.20
2018-11-03T22:08:37.049Z,16.37
2018-11-03T22:11:05.595Z,16.00
2018-11-03T22:13:34.169Z,16.63
2018-11-03T22:16:02.737Z,16.33
2018-11-03T22:18:31.201Z,16.57
2018-11-03T22:20:59.781Z,17.10
2018-11-03T22:23:28.345Z,17.20
2018-11-03T22:25:56.859Z,17.60
2018-11-03T22:28:25.369Z,16.57
2018-11-03T22:30:53.885Z,16.93
2018-11-03T22:33:22.407Z,16.87
2018-11-03T22:35:50.930Z,17.23
2018-11-03T22:38:19.443Z,16.30
2018-11-03T22:40:47.954Z,17.00
2018-11-03T22:43:16.461Z,17.10
2018-11-03T22:45:44.975Z,16.17
2018-11-03T22:48:13.494Z,16.13
2018-11-03T22:50:42.049Z,17.27
2018-11-03T22:53:10.542Z,18.00
2018-11-03T22:55:40.082Z,17.83
2018-11-03T22:58:08.607Z,15.63
2018-11-03T23:00:41.392Z,17.40
2018-11-03T23:03:09.910Z,16.13
2018-11-03T23:05:38.416Z,16.43
2018-11-03T23:08:07.047Z,16.83
2018-11-03T23:10:35.537Z,16.17
2018-11-03T23:13:04.356Z,15.73
2018-11-03T23:15:32.847Z,15.77
2018-11-03T23:18:01.387Z,15.47
2018-11-03T23:20:29.908Z,15.73
2018-11-03T23:22:58.456Z,14.10
2018-11-03T23:25:27.017Z,14.93
2018-11-03T23:27:55.508Z,14.80
2018-11-03T23:30:24.033Z,13.53
2018-11-03T23:32:52.539Z,13.43
2018-11-03T23:35:21.113Z,14.20
2018-11-03T23:37:49.656Z,13.57
2018-11-03T23:40:18.189Z,14.00
2018-11-03T23:42:46.753Z,14.67
2018-11-03T23:45:15.292Z,14.63
2018-11-03T23:47:43.783Z,13.40
2018-11-03T23:50:13.448Z,13.97
2018-11-03T23:52:45.060Z,12.90
2018-11-03T23:55:13.655Z,13.03
2018-11-03T23:57:42.209Z,13.27
